Time;durP1;ratioP1;P1;durP2;ratioP2;P2;SDS_P1;SDS_P2;PMS_P1;PMS_P2;Temp;Humidity;BMP_temperature;BMP_pressure;BME280_temperature;BME280_humidity;BME280_pressure;Samples;Min_cycle;Max_cycle;Signal;HPM_P1;HPM_P2
2022/01/18 00:00:15;;;;;;;8.03;3.27;;;9.00;99.90;;;;;;5087473;28;20485;-82
2022/01/18 00:02:54;;;;;;;17.40;4.80;;;9.20;99.90;;;;;;5113393;28;20507;-82
2022/01/18 00:05:32;;;;;;;10.27;3.20;;;9.10;99.90;;;;;;5083715;28;20475;-81
2022/01/18 00:08:07;;;;;;;7.53;3.10;;;9.10;99.90;;;;;;5078637;28;20479;-83
2022/01/18 00:10:37;;;;;;;12.47;3.80;;;9.00;99.90;;;;;;5076808;28;20479;-82
2022/01/18 00:13:37;;;;;;;10.63;4.30;;;9.00;99.90;;;;;;5073003;28;20455;-82
2022/01/18 00:19:27;;;;;;;;;;;;;;;;;;;;;
2022/01/18 00:24:48;;;;;;;18.10;3.63;;;9.00;99.90;;;;;;5072681;28;21237;-82
2022/01/18 00:27:44;;;;;;;11.53;3.53;;;9.00;99.90;;;;;;5074985;28;20440;-82
2022/01/18 00:33:11;;;;;;;17.80;4.30;;;9.00;99.90;;;;;;5081051;28;20483;-82
2022/01/18 00:35:51;;;;;;;15.50;3.70;;;8.90;99.90;;;;;;5078784;28;20498;-82
2022/01/18 00:38:45;;;;;;;14.30;3.90;;;8.90;99.90;;;;;;5078738;28;20449;-82
2022/01/18 00:41:26;;;;;;;13.53;4.80;;;9.10;99.90;;;;;;5081053;28;20479;-83
2022/01/18 00:44:14;;;;;;;10.53;3.50;;;9.00;99.90;;;;;;5079696;28;20456;-82
2022/01/18 00:46:53;;;;;;;12.20;3.10;;;8.90;99.90;;;;;;5082472;28;20477;-83
2022/01/18 00:49:40;;;;;;;13.20;4.10;;;8.90;99.90;;;;;;5091881;28;20440;-83
2022/01/18 00:52:34;;;;;;;13.17;3.40;;;9.00;99.90;;;;;;5083250;28;20447;-82
2022/01/18 00:55:13;;;;;;;12.93;4.03;;;8.90;99.90;;;;;;5071282;28;20483;-82
2022/01/18 00:58:19;;;;;;;;;;;;;;;;;;;;;
2022/01/18 01:00:56;;;;;;;10.67;3.77;;;8.90;99.90;;;;;;5075609;28;20479;-82
2022/01/18 01:04:03;;;;;;;12.00;3.90;;;9.00;99.90;;;;;;5058287;28;20489;-82
2022/01/18 01:06:50;;;;;;;8.87;3.40;;;9.00;99.90;;;;;;5062810;28;21744;-81
2022/01/18 01:09:33;;;;;;;10.37;3.50;;;9.00;99.90;;;;;;5064509;28;20441;-82
2022/01/18 01:12:06;;;;;;;15.53;4.23;;;9.10;99.90;;;;;;5064862;28;20462;-82
2022/01/18 01:14:43;;;;;;;11.90;3.70;;;9.00;99.90;;;;;;5081473;28;20525;-82
2022/01/18 01:18:04;;;;;;;;;;;;;;;;;;;;;
2022/01/18 01:45:18;;;;;;;9.20;2.83;;;8.80;99.90;;;;;;5084018;28;20483;-82
2022/01/18 01:48:22;;;;;;;;;;;;;;;;;;;;;
2022/01/18 01:53:58;;;;;;;7.27;3.07;;;8.80;99.90;;;;;;5080817;28;20568;-82
2022/01/18 01:56:36;;;;;;;15.33;4.63;;;8.80;99.90;;;;;;5104896;28;20930;-83
2022/01/18 01:59:17;;;;;;;13.50;3.30;;;8.80;99.90;;;;;;5084220;28;20443;-81
2022/01/18 02:02:04;;;;;;;8.37;2.93;;;8.80;99.90;;;;;;5084335;28;20972;-81
2022/01/18 02:04:51;;;;;;;12.53;3.03;;;8.80;99.90;;;;;;5081980;28;20443;-82
2022/01/18 02:07:31;;;;;;;13.10;3.07;;;8.80;99.90;;;;;;5082281;28;20450;-82
2022/01/18 02:10:26;;;;;;;13.13;3.67;;;8.90;99.90;;;;;;5083471;28;20837;-82
2022/01/18 02:13:35;;;;;;;;;;;;;;;;;;;;;
2022/01/18 02:22:22;;;;;;;13.33;4.90;;;8.80;99.90;;;;;;5081362;28;20903;-83
2022/01/18 02:25:14;;;;;;;9.00;3.60;;;8.90;99.90;;;;;;5079211;28;20503;-81
2022/01/18 02:28:30;;;;;;;;;;;;;;;;;;;;;
2022/01/18 02:31:04;;;;;;;11.50;3.43;;;8.80;99.90;;;;;;5082691;28;20557;-82
2022/01/18 02:33:37;;;;;;;11.80;3.90;;;8.80;99.90;;;;;;5081163;28;20449;-82
2022/01/18 02:36:21;;;;;;;11.47;2.90;;;8.70;99.90;;;;;;5078879;28;20486;-81
2022/01/18 02:39:31;;;;;;;13.93;3.50;;;8.80;99.90;;;;;;5080462;28;20963;-81
2022/01/18 02:42:10;;;;;;;16.50;3.90;;;8.70;99.90;;;;;;5081854;28;20489;-82
2022/01/18 02:44:53;;;;;;;16.47;3.63;;;8.70;99.90;;;;;;5102683;28;20483;-81
2022/01/18 02:47:34;;;;;;;12.00;3.87;;;8.80;99.90;;;;;;5081439;28;20447;-82
2022/01/18 02:50:14;;;;;;;13.63;3.07;;;8.90;99.90;;;;;;5079898;28;21028;-81
2022/01/18 02:52:55;;;;;;;10.13;3.10;;;8.80;99.90;;;;;;5081805;28;20448;-82
2022/01/18 02:55:41;;;;;;;12.60;3.20;;;8.80;99.90;;;;;;5079934;28;20496;-81
2022/01/18 02:58:33;;;;;;;6.67;3.90;;;8.80;99.90;;;;;;5079479;28;20446;-81
2022/01/18 03:03:52;;;;;;;9.90;3.53;;;8.80;99.90;;;;;;5083042;28;20449;-82
2022/01/18 03:06:46;;;;;;;10.23;2.80;;;8.80;99.90;;;;;;5082402;28;20479;-83
2022/01/18 03:09:31;;;;;;;15.57;3.60;;;8.80;99.90;;;;;;5082837;28;20440;-83
2022/01/18 03:12:42;;;;;;;8.80;3.17;;;8.80;99.90;;;;;;5081962;28;20440;-82
2022/01/18 03:15:42;;;;;;;8.37;3.27;;;8.80;99.90;;;;;;5082209;28;20486;-83
2022/01/18 03:18:30;;;;;;;11.17;3.10;;;8.90;99.90;;;;;;5076210;28;20478;-81
2022/01/18 03:21:13;;;;;;;16.13;3.70;;;8.90;99.90;;;;;;5085241;28;20479;-82
2022/01/18 03:24:20;;;;;;;11.47;3.07;;;9.00;99.90;;;;;;5053397;28;20580;-81
2022/01/18 03:29:49;;;;;;;10.03;3.73;;;9.00;99.90;;;;;;5069644;28;20451;-81
2022/01/18 03:32:25;;;;;;;11.50;3.70;;;9.00;99.90;;;;;;5069119;28;20463;-82
2022/01/18 03:34:56;;;;;;;12.37;3.60;;;9.00;99.90;;;;;;5087257;28;20506;-82
2022/01/18 03:37:33;;;;;;;14.10;4.17;;;9.00;99.90;;;;;;5082467;28;20515;-82
2022/01/18 03:40:19;;;;;;;10.37;3.03;;;9.10;99.90;;;;;;5074001;28;20440;-81
2022/01/18 03:43:08;;;;;;;14.93;3.20;;;9.00;99.90;;;;;;5073521;28;20449;-84
2022/01/18 03:45:45;;;;;;;11.10;4.10;;;9.00;99.90;;;;;;5071479;28;20536;-81
2022/01/18 03:48:49;;;;;;;10.13;3.97;;;9.00;99.90;;;;;;5075251;28;20445;-81
2022/01/18 03:51:49;;;;;;;9.33;3.50;;;8.90;99.90;;;;;;5101574;28;20525;-82
2022/01/18 03:54:26;;;;;;;12.33;3.67;;;8.90;99.90;;;;;;5098950;28;20437;-82
2022/01/18 03:57:19;;;;;;;12.00;4.80;;;9.00;99.90;;;;;;5082116;28;20487;-81
2022/01/18 04:00:02;;;;;;;9.90;4.23;;;8.90;99.90;;;;;;5080198;28;20470;-82
2022/01/18 04:02:44;;;;;;;12.87;4.13;;;8.90;99.90;;;;;;5078030;28;20453;-83
2022/01/18 04:05:24;;;;;;;10.97;3.63;;;8.90;99.90;;;;;;5063413;28;20461;-82
2022/01/18 04:08:33;;;;;;;14.33;4.53;;;8.80;99.90;;;;;;5008230;28;21048;-83
2022/01/18 04:11:34;;;;;;;9.20;3.40;;;8.80;99.90;;;;;;5020875;28;20459;-83
2022/01/18 04:14:18;;;;;;;9.43;4.00;;;8.80;99.90;;;;;;4995908;28;20458;-81
2022/01/18 04:17:08;;;;;;;15.07;5.00;;;8.70;99.90;;;;;;5003443;28;20482;-82
2022/01/18 04:26:56;;;;;;;19.90;6.30;;;8.70;99.90;;;;;;5046246;28;20914;-82
2022/01/18 04:29:11;;;;;;;13.60;4.70;;;8.70;99.90;;;;;;5037824;28;20430;-80
2022/01/18 04:31:49;;;;;;;11.40;4.27;;;8.70;99.90;;;;;;5023516;28;20457;-81
2022/01/18 04:34:24;;;;;;;13.63;4.50;;;8.70;99.90;;;;;;5012896;28;20454;-81
2022/01/18 04:37:09;;;;;;;16.03;4.90;;;8.80;99.90;;;;;;5022376;28;20453;-81
2022/01/18 04:40:01;;;;;;;25.83;5.83;;;8.80;99.90;;;;;;5010167;28;20458;-81
2022/01/18 04:43:04;;;;;;;16.63;4.70;;;8.80;99.90;;;;;;5011788;28;20620;-82
2022/01/18 04:48:52;;;;;;;13.10;4.77;;;8.90;99.90;;;;;;5064495;28;20891;-82
2022/01/18 04:51:34;;;;;;;15.77;5.60;;;8.80;99.90;;;;;;5077917;28;20849;-81
2022/01/18 04:54:37;;;;;;;14.83;5.20;;;8.80;99.90;;;;;;5070209;28;20440;-81
2022/01/18 05:00:06;;;;;;;13.40;4.60;;;8.70;99.90;;;;;;5064395;28;20467;-81
2022/01/18 05:02:41;;;;;;;8.57;4.97;;;8.70;99.90;;;;;;5084148;22;20515;-83
2022/01/18 05:05:10;;;;;;;14.53;4.27;;;8.90;99.90;;;;;;5039654;28;21171;-83
2022/01/18 05:07:38;;;;;;;16.53;5.40;;;8.80;99.90;;;;;;5038989;28;20472;-82
2022/01/18 05:10:05;;;;;;;13.67;6.00;;;8.70;99.90;;;;;;5040006;28;20462;-83
2022/01/18 05:12:43;;;;;;;12.60;3.97;;;8.70;99.90;;;;;;5051885;28;20479;-83
2022/01/18 05:15:35;;;;;;;13.50;4.90;;;8.70;99.90;;;;;;5048800;28;20455;-84
2022/01/18 05:23:10;;;;;;;11.57;5.50;;;8.70;99.90;;;;;;5035476;28;20482;-83
2022/01/18 05:25:37;;;;;;;11.87;4.97;;;8.60;99.90;;;;;;5020488;28;20461;-82
2022/01/18 05:28:06;;;;;;;13.10;5.00;;;8.60;99.90;;;;;;5030299;28;20982;-80
2022/01/18 05:30:32;;;;;;;16.00;4.83;;;8.60;99.90;;;;;;5029724;28;20608;-81
2022/01/18 05:32:59;;;;;;;11.57;4.67;;;8.60;99.90;;;;;;5013969;28;20600;-82
2022/01/18 05:35:27;;;;;;;15.50;4.97;;;8.60;99.90;;;;;;5037005;28;20565;-82
2022/01/18 05:37:54;;;;;;;16.30;4.80;;;8.60;99.90;;;;;;5018596;28;20538;-83
2022/01/18 05:40:21;;;;;;;14.80;5.93;;;8.60;99.90;;;;;;5017549;28;20466;-81
2022/01/18 05:42:48;;;;;;;22.27;4.90;;;8.70;99.90;;;;;;5025108;28;20465;-83
2022/01/18 05:45:15;;;;;;;21.00;5.67;;;8.70;99.90;;;;;;5025859;28;20967;-83
2022/01/18 05:47:42;;;;;;;15.80;5.10;;;8.70;99.90;;;;;;5027233;28;20463;-82
2022/01/18 05:50:11;;;;;;;19.77;5.30;;;8.70;99.90;;;;;;5027614;28;20457;-82
2022/01/18 05:52:38;;;;;;;16.23;5.57;;;8.70;99.90;;;;;;5008188;28;20484;-82
2022/01/18 05:55:06;;;;;;;12.63;4.30;;;8.70;99.90;;;;;;5027217;28;20812;-82
2022/01/18 05:57:33;;;;;;;12.10;5.80;;;8.60;99.90;;;;;;5003891;28;20458;-80
2022/01/18 06:00:05;;;;;;;17.00;5.17;;;8.60;99.90;;;;;;5027755;28;20462;-80
2022/01/18 06:07:44;;;;;;;14.17;7.43;;;8.70;99.90;;;;;;5024703;28;20456;-82
2022/01/18 06:10:11;;;;;;;14.97;5.40;;;8.70;99.90;;;;;;5033640;28;20455;-82
2022/01/18 06:12:39;;;;;;;11.43;6.33;;;8.60;99.90;;;;;;5018990;28;20558;-81
2022/01/18 06:15:07;;;;;;;16.50;4.97;;;8.60;99.90;;;;;;5015533;28;20960;-81
2022/01/18 06:17:33;;;;;;;13.80;6.90;;;8.60;99.90;;;;;;5021224;28;20461;-82
2022/01/18 06:20:00;;;;;;;15.73;5.37;;;8.60;99.90;;;;;;4999518;28;20461;-82
2022/01/18 06:22:27;;;;;;;15.80;5.33;;;8.60;99.90;;;;;;5032145;28;20485;-82
2022/01/18 06:24:53;;;;;;;11.67;4.60;;;8.60;99.90;;;;;;5047290;28;20437;-81
2022/01/18 06:27:20;;;;;;;16.10;5.07;;;8.60;99.90;;;;;;5047330;28;20456;-81
2022/01/18 06:29:47;;;;;;;18.73;5.87;;;8.60;99.90;;;;;;5055364;28;20430;-82
2022/01/18 06:32:14;;;;;;;18.57;5.87;;;8.70;99.90;;;;;;5037156;28;20500;-82
2022/01/18 06:34:40;;;;;;;12.57;4.70;;;8.80;99.90;;;;;;5043580;28;20437;-83
2022/01/18 06:37:07;;;;;;;10.87;4.93;;;8.80;99.90;;;;;;5045838;28;20463;-80
2022/01/18 06:39:34;;;;;;;11.23;4.33;;;8.70;99.90;;;;;;5028753;28;20445;-80
2022/01/18 06:42:05;;;;;;;13.27;5.60;;;8.60;99.90;;;;;;5038711;28;20478;-80
2022/01/18 06:44:31;;;;;;;11.53;5.40;;;8.60;99.90;;;;;;5051233;28;20730;-82
2022/01/18 06:46:58;;;;;;;14.03;4.90;;;8.50;99.90;;;;;;5044879;28;20457;-82
2022/01/18 06:49:25;;;;;;;18.97;7.07;;;8.50;99.90;;;;;;5040639;28;20465;-82
2022/01/18 06:51:52;;;;;;;12.30;6.00;;;8.50;99.90;;;;;;5033923;28;20459;-83
2022/01/18 06:54:18;;;;;;;11.53;5.13;;;8.40;99.90;;;;;;5029457;28;20478;-82
2022/01/18 06:56:49;;;;;;;20.20;6.40;;;8.40;99.90;;;;;;5028582;28;20797;-83
2022/01/18 06:59:17;;;;;;;12.30;5.13;;;8.50;99.90;;;;;;5040012;28;20479;-82
2022/01/18 07:01:45;;;;;;;13.60;5.23;;;8.70;99.90;;;;;;5028680;28;20504;-83
2022/01/18 07:04:12;;;;;;;12.10;5.30;;;8.60;99.90;;;;;;5037058;28;20556;-83
2022/01/18 07:06:39;;;;;;;13.43;5.23;;;8.60;99.90;;;;;;5036347;28;20454;-81
2022/01/18 07:09:06;;;;;;;15.87;5.97;;;8.60;99.90;;;;;;5033154;28;20448;-81
2022/01/18 07:11:33;;;;;;;17.43;6.60;;;8.60;99.90;;;;;;5033249;28;20467;-83
2022/01/18 07:13:59;;;;;;;14.23;5.30;;;8.60;99.90;;;;;;5041320;28;20473;-81
2022/01/18 07:16:26;;;;;;;16.00;5.80;;;8.60;99.90;;;;;;5038066;28;20450;-79
2022/01/18 07:18:52;;;;;;;13.07;5.57;;;9.00;99.90;;;;;;5031013;28;20459;-80
2022/01/18 07:21:19;;;;;;;15.37;6.10;;;8.90;99.90;;;;;;5035970;28;20785;-81
2022/01/18 07:23:46;;;;;;;21.53;5.73;;;9.00;99.90;;;;;;5026379;28;20510;-80
2022/01/18 07:26:13;;;;;;;20.60;5.50;;;8.80;99.90;;;;;;5037279;28;20458;-80
2022/01/18 07:28:40;;;;;;;18.10;5.70;;;8.70;99.90;;;;;;5044682;28;20448;-79
2022/01/18 07:31:08;;;;;;;13.37;5.80;;;8.60;99.90;;;;;;5052608;28;20800;-79
2022/01/18 07:33:39;;;;;;;10.23;5.10;;;8.60;99.90;;;;;;5025485;28;20477;-79
2022/01/18 07:36:06;;;;;;;15.07;5.63;;;8.60;99.90;;;;;;5041915;28;20446;-80
2022/01/18 07:38:33;;;;;;;25.77;6.60;;;8.60;99.90;;;;;;5033647;28;20458;-82
2022/01/18 07:41:00;;;;;;;13.70;6.33;;;8.50;99.90;;;;;;5001878;28;20452;-82
2022/01/18 07:43:26;;;;;;;13.07;5.53;;;8.50;99.90;;;;;;5026535;28;21241;-81
2022/01/18 07:45:55;;;;;;;13.47;5.37;;;8.60;99.90;;;;;;5029959;28;20441;-83
2022/01/18 07:48:23;;;;;;;19.70;6.97;;;8.60;99.90;;;;;;5039554;28;21317;-80
2022/01/18 07:50:51;;;;;;;20.27;7.90;;;8.90;99.90;;;;;;5025213;28;20449;-82
2022/01/18 07:53:18;;;;;;;13.67;6.60;;;8.80;99.90;;;;;;5008670;28;20888;-79
2022/01/18 07:55:47;;;;;;;18.00;6.50;;;8.70;99.90;;;;;;5034840;28;20465;-80
2022/01/18 07:58:14;;;;;;;16.53;6.17;;;8.90;99.90;;;;;;5019739;28;20459;-80
2022/01/18 08:00:40;;;;;;;17.47;6.90;;;8.80;99.90;;;;;;5024796;28;20456;-83
2022/01/18 08:03:08;;;;;;;19.70;7.27;;;8.80;99.90;;;;;;5037445;28;20480;-82
2022/01/18 08:05:37;;;;;;;21.43;8.13;;;8.70;99.90;;;;;;5051811;28;20483;-82
2022/01/18 08:08:07;;;;;;;15.33;6.83;;;8.70;99.90;;;;;;5022047;28;20464;-83
2022/01/18 08:10:34;;;;;;;14.10;6.80;;;8.70;99.90;;;;;;5034602;28;20451;-81
2022/01/18 08:13:03;;;;;;;12.20;6.40;;;9.00;99.90;;;;;;5036008;28;20484;-82
2022/01/18 08:15:39;;;;;;;13.10;6.33;;;8.90;99.90;;;;;;5024541;28;20540;-83
2022/01/18 08:18:14;;;;;;;17.30;6.87;;;8.80;99.90;;;;;;5028093;28;20458;-82
2022/01/18 08:20:41;;;;;;;13.53;5.67;;;8.80;99.90;;;;;;5032227;28;21020;-80
2022/01/18 08:23:09;;;;;;;16.43;6.03;;;8.70;99.90;;;;;;5036432;28;20852;-81
2022/01/18 08:25:37;;;;;;;13.23;6.47;;;8.70;99.90;;;;;;5040766;28;20433;-81
2022/01/18 08:28:04;;;;;;;13.10;6.40;;;8.80;99.90;;;;;;5046424;28;20456;-81
2022/01/18 08:33:02;;;;;;;12.93;6.70;;;9.40;99.90;;;;;;5055135;28;20506;-81
2022/01/18 08:35:31;;;;;;;14.67;6.00;;;9.60;99.90;;;;;;5050882;28;20436;-83
2022/01/18 08:37:58;;;;;;;17.43;5.30;;;9.40;99.90;;;;;;5053232;28;20434;-84
2022/01/18 08:40:25;;;;;;;15.17;5.70;;;9.60;99.90;;;;;;5053538;28;20941;-81
2022/01/18 08:42:52;;;;;;;16.93;6.10;;;9.50;99.90;;;;;;5033481;28;21002;-83
2022/01/18 08:45:18;;;;;;;18.23;6.10;;;9.30;99.90;;;;;;5030407;28;20966;-82
2022/01/18 08:47:47;;;;;;;12.10;5.70;;;9.00;99.90;;;;;;5023403;28;20536;-82
2022/01/18 08:50:14;;;;;;;14.43;4.80;;;8.90;99.90;;;;;;5049490;28;20451;-83
2022/01/18 08:52:40;;;;;;;14.47;6.00;;;9.00;99.90;;;;;;5022682;28;20490;-81
2022/01/18 08:55:08;;;;;;;15.90;5.97;;;9.00;99.90;;;;;;5026665;28;20457;-80
2022/01/18 08:57:34;;;;;;;15.10;5.93;;;8.90;99.90;;;;;;5034481;28;20457;-80
2022/01/18 09:00:01;;;;;;;9.07;4.40;;;8.80;99.90;;;;;;5036533;28;20447;-82
2022/01/18 09:02:28;;;;;;;25.67;7.03;;;8.80;99.90;;;;;;5034938;28;20569;-80
2022/01/18 09:04:55;;;;;;;20.50;5.90;;;8.80;99.90;;;;;;5046698;28;20471;-79
2022/01/18 09:07:23;;;;;;;22.70;7.97;;;8.90;99.90;;;;;;5041224;28;20454;-81
2022/01/18 09:09:54;;;;;;;13.97;6.20;;;9.00;99.90;;;;;;5037496;28;20449;-82
2022/01/18 09:12:22;;;;;;;9.90;5.60;;;8.90;99.90;;;;;;5036439;28;20485;-81
2022/01/18 09:14:49;;;;;;;13.40;6.40;;;9.00;99.90;;;;;;5038364;28;20449;-81
2022/01/18 09:17:19;;;;;;;17.23;5.77;;;9.30;99.90;;;;;;5024158;28;20489;-81
2022/01/18 09:19:46;;;;;;;13.93;5.70;;;9.20;99.90;;;;;;5039379;28;20514;-82
2022/01/18 09:22:13;;;;;;;11.90;5.33;;;9.20;99.90;;;;;;5035711;28;20469;-81
2022/01/18 09:24:39;;;;;;;12.93;5.30;;;9.30;99.90;;;;;;5031447;28;20454;-82
2022/01/18 09:27:06;;;;;;;10.53;5.83;;;9.30;99.90;;;;;;5033997;28;20533;-82
2022/01/18 09:29:34;;;;;;;9.70;4.80;;;9.20;99.90;;;;;;5037246;28;20444;-81
2022/01/18 09:32:01;;;;;;;13.50;6.47;;;9.20;99.90;;;;;;5031782;28;20466;-82
2022/01/18 09:34:29;;;;;;;17.93;6.17;;;9.10;99.90;;;;;;5025920;28;20904;-83
2022/01/18 09:36:56;;;;;;;14.20;5.73;;;9.10;99.90;;;;;;5034151;28;20456;-81
2022/01/18 09:39:25;;;;;;;12.70;4.93;;;9.70;99.90;;;;;;5019012;28;20459;-82
2022/01/18 09:41:54;;;;;;;13.13;5.00;;;9.60;99.90;;;;;;5023497;28;20855;-82
2022/01/18 09:44:21;;;;;;;19.10;5.30;;;9.40;99.90;;;;;;5018113;28;20468;-82
2022/01/18 09:46:50;;;;;;;15.90;6.90;;;9.30;99.90;;;;;;5026346;28;20818;-81
2022/01/18 09:49:18;;;;;;;12.30;5.90;;;9.40;99.90;;;;;;5036702;28;20458;-81
2022/01/18 09:51:45;;;;;;;11.50;6.37;;;9.40;99.90;;;;;;5035841;28;20454;-81
2022/01/18 09:54:12;;;;;;;14.00;6.53;;;9.40;99.90;;;;;;5033801;28;20489;-81
2022/01/18 09:56:39;;;;;;;14.10;6.70;;;9.50;99.90;;;;;;5025575;28;20454;-82
2022/01/18 09:59:07;;;;;;;10.50;6.20;;;9.90;99.90;;;;;;5030191;28;20465;-82
2022/01/18 10:01:34;;;;;;;17.60;9.10;;;10.00;99.90;;;;;;5038167;28;20480;-80
2022/01/18 10:04:15;;;;;;;16.97;7.10;;;10.30;99.90;;;;;;5031464;28;20472;-81
2022/01/18 10:06:42;;;;;;;18.70;8.60;;;10.40;99.90;;;;;;5034345;28;20456;-82
2022/01/18 10:09:13;;;;;;;16.83;8.03;;;10.10;99.90;;;;;;5037799;28;20458;-82
2022/01/18 10:12:11;;;;;;;16.20;8.27;;;10.30;99.90;;;;;;5039034;28;20466;-81
2022/01/18 10:14:40;;;;;;;16.97;8.87;;;10.30;99.90;;;;;;5028719;28;20908;-82
2022/01/18 10:17:10;;;;;;;14.87;7.20;;;10.30;99.90;;;;;;5034963;28;20453;-82
2022/01/18 10:19:49;;;;;;;20.73;7.27;;;10.40;99.90;;;;;;5031402;28;20528;-82
2022/01/18 10:22:23;;;;;;;17.43;8.37;;;10.30;99.90;;;;;;5033191;28;20542;-82
2022/01/18 10:24:52;;;;;;;19.47;10.83;;;10.40;99.90;;;;;;5033424;28;20442;-81
2022/01/18 10:27:19;;;;;;;15.70;7.87;;;10.40;99.90;;;;;;5042292;28;20462;-81
2022/01/18 10:29:49;;;;;;;16.53;7.87;;;10.30;99.90;;;;;;5036437;28;20452;-82
2022/01/18 10:32:28;;;;;;;15.77;8.97;;;10.40;99.90;;;;;;5032192;28;20468;-82
2022/01/18 10:37:30;;;;;;;16.53;9.00;;;10.10;99.90;;;;;;5036500;28;20487;-81
2022/01/18 10:40:04;;;;;;;15.90;8.87;;;10.00;99.90;;;;;;5039999;28;20500;-79
2022/01/18 10:42:39;;;;;;;22.00;11.60;;;10.20;99.90;;;;;;5040560;28;20962;-81
2022/01/18 10:45:22;;;;;;;19.00;11.40;;;10.30;99.90;;;;;;5024673;28;20457;-82
2022/01/18 10:48:03;;;;;;;21.70;10.97;;;10.40;99.90;;;;;;5043746;28;20444;-81
2022/01/18 10:50:35;;;;;;;19.07;10.73;;;10.70;99.90;;;;;;5038784;28;20455;-83
2022/01/18 10:53:14;;;;;;;18.17;11.40;;;10.80;99.90;;;;;;5033560;28;20492;-83
2022/01/18 10:55:43;;;;;;;20.93;11.97;;;10.70;99.90;;;;;;5016892;28;20465;-83
2022/01/18 10:58:15;;;;;;;19.17;10.83;;;10.80;99.90;;;;;;5038008;28;20955;-81
2022/01/18 11:00:42;;;;;;;23.27;12.30;;;10.80;99.90;;;;;;5024847;28;20530;-83
2022/01/18 11:03:10;;;;;;;26.07;13.10;;;10.80;99.90;;;;;;5038235;28;20484;-84
2022/01/18 11:05:46;;;;;;;22.70;13.50;;;10.80;99.90;;;;;;5038292;28;20541;-84
2022/01/18 11:08:16;;;;;;;22.10;12.20;;;10.50;99.90;;;;;;5037004;28;20826;-84
2022/01/18 11:10:47;;;;;;;23.07;13.80;;;10.20;99.90;;;;;;5037622;28;20468;-83
2022/01/18 11:13:35;;;;;;;24.97;12.83;;;10.10;99.90;;;;;;5030299;28;20460;-83
2022/01/18 11:16:23;;;;;;;23.30;13.80;;;10.40;99.90;;;;;;5027624;28;20462;-81
2022/01/18 11:18:50;;;;;;;25.63;13.03;;;10.60;99.90;;;;;;5036076;28;20453;-82
2022/01/18 11:21:24;;;;;;;21.80;13.30;;;10.80;99.90;;;;;;5038617;28;20524;-84
2022/01/18 11:23:57;;;;;;;30.63;14.20;;;10.70;99.90;;;;;;5034167;28;20485;-86
2022/01/18 11:26:30;;;;;;;26.07;14.70;;;10.60;99.90;;;;;;5038764;28;20441;-85
2022/01/18 11:29:08;;;;;;;25.70;14.27;;;10.60;99.90;;;;;;5051668;28;20446;-83
2022/01/18 11:31:38;;;;;;;27.70;13.63;;;10.50;99.90;;;;;;5036577;28;20454;-84
2022/01/18 11:34:10;;;;;;;32.93;15.20;;;10.80;99.90;;;;;;5038067;28;21017;-82
2022/01/18 11:36:48;;;;;;;24.70;14.73;;;10.80;99.90;;;;;;5038329;28;20547;-84
2022/01/18 11:39:18;;;;;;;29.20;15.17;;;10.90;99.90;;;;;;5039529;28;20457;-83
2022/01/18 11:41:45;;;;;;;23.30;14.60;;;10.70;99.90;;;;;;5040736;28;20461;-81
2022/01/18 11:44:19;;;;;;;26.63;16.60;;;11.00;99.90;;;;;;5042921;28;20511;-83
2022/01/18 11:46:50;;;;;;;31.90;15.73;;;11.50;99.90;;;;;;5055902;28;20623;-84
2022/01/18 11:49:32;;;;;;;29.87;18.17;;;11.30;99.90;;;;;;5039856;28;20460;-82
2022/01/18 11:52:06;;;;;;;26.57;17.80;;;11.00;99.90;;;;;;5045812;28;20452;-83
2022/01/18 11:57:24;;;;;;;27.63;16.33;;;11.40;99.90;;;;;;5039921;28;20531;-83
2022/01/18 12:00:10;;;;;;;25.73;17.50;;;11.50;99.90;;;;;;5040081;28;20481;-82
2022/01/18 12:02:48;;;;;;;29.43;18.40;;;11.20;99.90;;;;;;5031535;28;20493;-82
2022/01/18 12:05:21;;;;;;;27.50;18.10;;;11.20;99.90;;;;;;5019543;28;20460;-84
2022/01/18 12:08:00;;;;;;;32.87;18.33;;;11.30;99.90;;;;;;5016952;28;20544;-82
2022/01/18 12:10:30;;;;;;;31.83;18.83;;;11.60;99.90;;;;;;5018052;28;20455;-82
2022/01/18 12:13:02;;;;;;;31.23;19.20;;;11.60;99.90;;;;;;5037335;28;20519;-83
2022/01/18 12:15:36;;;;;;;29.27;18.70;;;11.60;99.90;;;;;;5031806;28;20463;-83
2022/01/18 12:18:13;;;;;;;33.23;20.00;;;11.60;99.90;;;;;;5036069;28;20480;-82
2022/01/18 12:20:46;;;;;;;30.47;18.90;;;11.30;99.90;;;;;;5036357;28;20446;-82
2022/01/18 12:23:24;;;;;;;31.30;19.90;;;11.40;99.90;;;;;;5034644;28;20488;-82
2022/01/18 12:26:27;;;;;;;33.67;18.70;;;11.30;99.90;;;;;;5018247;28;20458;-82
2022/01/18 12:34:38;;;;;;;29.73;17.77;;;11.60;99.90;;;;;;5017884;28;20492;-83
2022/01/18 12:37:24;;;;;;;35.33;19.37;;;11.40;99.90;;;;;;5017863;28;20462;-82
2022/01/18 12:39:54;;;;;;;31.27;16.70;;;11.40;99.90;;;;;;5033638;28;20454;-82
2022/01/18 12:44:20;;;;;;;28.23;17.20;;;11.20;99.90;;;;;;5018014;28;20495;-82
2022/01/18 12:45:37;;;;;;;26.07;16.37;;;11.30;99.90;;;;;;5017704;28;20549;-82
2022/01/18 12:48:08;;;;;;;29.80;17.20;;;11.30;99.90;;;;;;5017497;28;20441;-82
2022/01/18 12:50:41;;;;;;;25.77;15.50;;;11.30;99.90;;;;;;5017982;28;20450;-83
2022/01/18 12:53:12;;;;;;;29.03;16.33;;;11.60;99.90;;;;;;5017636;28;20501;-83
2022/01/18 12:55:54;;;;;;;28.20;17.43;;;11.60;99.90;;;;;;5017545;28;20486;-83
2022/01/18 12:58:42;;;;;;;21.07;13.90;;;11.40;99.90;;;;;;5020251;28;20444;-83
2022/01/18 13:01:10;;;;;;;27.60;16.50;;;11.50;99.90;;;;;;5033202;28;20518;-82
2022/01/18 13:03:52;;;;;;;23.20;13.77;;;11.50;99.90;;;;;;5021542;28;20539;-82
2022/01/18 13:06:21;;;;;;;22.13;14.77;;;11.70;99.90;;;;;;5032808;28;20446;-83
2022/01/18 13:09:05;;;;;;;22.67;15.17;;;11.30;99.90;;;;;;5051938;28;20852;-84
2022/01/18 13:11:42;;;;;;;23.17;12.20;;;11.30;99.90;;;;;;5055629;28;20802;-84
2022/01/18 13:14:13;;;;;;;20.90;12.40;;;11.20;99.90;;;;;;5045582;28;20479;-84
2022/01/18 13:25:11;;;;;;;22.20;14.83;;;11.40;99.90;;;;;;5039972;28;20439;-85
2022/01/18 13:30:10;;;;;;;22.60;12.17;;;11.60;99.90;;;;;;5040573;28;20826;-85
2022/01/18 13:32:42;;;;;;;21.90;12.43;;;11.30;99.90;;;;;;5039446;28;20486;-85
2022/01/18 13:35:09;;;;;;;21.33;13.07;;;11.30;99.90;;;;;;5040126;28;20458;-85
2022/01/18 13:37:38;;;;;;;25.90;14.07;;;11.00;99.90;;;;;;5042671;28;20450;-85
2022/01/18 13:40:17;;;;;;;24.77;12.57;;;11.00;99.90;;;;;;5048601;28;20484;-83
2022/01/18 13:43:05;;;;;;;25.83;14.10;;;11.40;99.90;;;;;;5048426;28;20561;-82
2022/01/18 13:45:34;;;;;;;18.07;13.17;;;11.30;99.90;;;;;;5030929;28;20446;-82
2022/01/18 13:48:08;;;;;;;23.97;11.50;;;11.40;99.90;;;;;;5043905;28;20438;-85
2022/01/18 13:50:47;;;;;;;18.10;10.73;;;11.20;99.90;;;;;;5052299;28;20441;-86
2022/01/18 13:53:22;;;;;;;18.30;11.10;;;10.90;99.90;;;;;;5056135;28;20481;-86
2022/01/18 13:55:51;;;;;;;19.70;12.27;;;11.30;99.90;;;;;;5055377;28;20489;-87
2022/01/18 13:58:44;;;;;;;20.00;13.20;;;11.60;99.50;;;;;;5056851;28;20456;-84
2022/01/18 14:01:26;;;;;;;21.60;13.17;;;11.70;99.20;;;;;;5056335;28;20446;-84
2022/01/18 14:03:59;;;;;;;25.50;13.57;;;11.60;99.50;;;;;;5051023;28;20478;-83
2022/01/18 14:06:42;;;;;;;20.50;11.83;;;11.50;99.50;;;;;;5047092;28;20541;-81
2022/01/18 14:09:11;;;;;;;20.83;12.77;;;11.50;99.90;;;;;;5037705;28;20448;-81
2022/01/18 14:11:38;;;;;;;25.17;12.10;;;11.40;99.80;;;;;;5034821;28;20455;-82
2022/01/18 14:14:18;;;;;;;24.23;13.43;;;11.30;99.90;;;;;;5044443;28;20486;-81
2022/01/18 14:16:57;;;;;;;18.53;13.70;;;11.10;99.90;;;;;;5048253;28;20445;-83
2022/01/18 14:19:37;;;;;;;19.43;11.77;;;11.00;99.90;;;;;;5038970;28;20465;-83
2022/01/18 14:22:15;;;;;;;21.67;13.10;;;10.80;99.90;;;;;;5034198;28;20465;-83
2022/01/18 14:24:44;;;;;;;21.90;14.00;;;11.00;99.90;;;;;;5037878;28;20480;-82
2022/01/18 14:27:15;;;;;;;22.33;11.50;;;11.10;99.90;;;;;;5038207;28;21243;-83
2022/01/18 14:29:42;;;;;;;16.37;11.13;;;11.10;99.90;;;;;;5042080;28;20978;-81
2022/01/18 14:32:09;;;;;;;24.57;12.57;;;11.10;99.90;;;;;;5045739;28;20463;-81
2022/01/18 14:34:42;;;;;;;15.77;10.37;;;11.00;99.90;;;;;;5035168;28;20470;-82
2022/01/18 14:37:13;;;;;;;18.87;10.50;;;11.00;99.90;;;;;;5043510;28;20444;-83
2022/01/18 14:40:00;;;;;;;19.13;12.57;;;11.00;99.80;;;;;;5038762;28;20856;-83
2022/01/18 14:42:33;;;;;;;20.67;11.10;;;10.90;99.90;;;;;;5037503;28;20472;-82
2022/01/18 14:45:19;;;;;;;20.07;10.47;;;10.70;99.90;;;;;;5033592;28;20484;-82
2022/01/18 14:47:46;;;;;;;16.43;10.47;;;10.70;99.90;;;;;;5053141;28;20408;-81
2022/01/18 14:50:23;;;;;;;18.43;10.20;;;10.80;99.90;;;;;;5042546;28;20498;-81
2022/01/18 14:52:51;;;;;;;18.37;10.50;;;10.60;99.90;;;;;;5041581;28;20529;-81
2022/01/18 14:55:21;;;;;;;18.53;9.33;;;10.70;99.90;;;;;;5032500;28;21773;-81
2022/01/18 14:57:48;;;;;;;19.40;9.93;;;10.50;99.90;;;;;;5025378;28;20454;-83
2022/01/18 15:00:17;;;;;;;18.60;12.00;;;10.70;99.90;;;;;;5024422;28;20460;-82
2022/01/18 15:02:44;;;;;;;15.73;10.60;;;10.70;99.90;;;;;;5024123;28;20523;-82
2022/01/18 15:05:11;;;;;;;18.23;11.13;;;10.60;99.90;;;;;;5024725;28;20455;-81